CFR2 weather

Bawlf (Blackwells) Airport
Bawlf, Alberta, Canada

Public forecast

Using degrees Celsius for public forecast. Weather courtesy of forecast.io.

METAR (pilot weather report)

Closest report is Edmonton International Airport, 44.5 nm (82.5 km) NW. Retrieved 2019/07/23 23:00 UTC (19 minutes ago):

CYEG 232300Z 13009KT 20SM SCT040CB BKN250 28/20 A2994 RMK CB3CI2 DSIPTG CB DIST NW QUAD MOVG SLOLY NEWD SLP138 DENSITY ALT 4400FT

TAF (pilot weather forecast)

Closest forecast is Edmonton International Airport, 44.5 nm (82.5 km) NW. Retrieved 2019/07/23 21:46 UTC (2 hours ago):

TAF CYEG 232042Z 2321/2418 VRB03KT P6SM FEW040 BECMG 2321/2323 09006KT FM240000 07006KT P6SM SKC BECMG 2408/2410 24005KT FM241000 24005KT P6SM FEW010 SCT220 FM241400 27006KT P6SM -RA SCT020 BKN040 BECMG 2414/2416 27012G22KT RMK NXT FCST BY 240000Z